createdAt,value
2022-10-04T00:00:12.917Z,43.30
2022-10-04T00:01:15.420Z,43.30
2022-10-04T00:02:17.787Z,43.20
2022-10-04T00:03:22.706Z,43.40
2022-10-04T00:04:27.595Z,43.40
2022-10-04T00:05:30.488Z,43.30
2022-10-04T00:06:32.651Z,43.30
2022-10-04T00:07:37.952Z,43.20
2022-10-04T00:08:51.960Z,43.20
2022-10-04T00:10:01.818Z,43.20
2022-10-04T00:11:14.872Z,43.30
2022-10-04T00:12:20.056Z,43.40
2022-10-04T00:13:24.526Z,43.30
2022-10-04T00:14:31.688Z,43.30
2022-10-04T00:15:37.373Z,43.30
2022-10-04T00:16:40.639Z,43.20
2022-10-04T00:17:42.893Z,43.30
2022-10-04T00:18:45.341Z,43.20
2022-10-04T00:19:49.331Z,43.20
2022-10-04T00:20:53.189Z,43.10
2022-10-04T00:21:56.177Z,43.10
2022-10-04T00:23:16.799Z,43.20
2022-10-04T00:24:26.859Z,43.20
2022-10-04T00:25:35.334Z,43.10
2022-10-04T00:26:37.447Z,43.10
2022-10-04T00:27:40.143Z,43.10
2022-10-04T00:28:43.961Z,43.00
2022-10-04T00:30:04.367Z,43.20
2022-10-04T00:31:12.672Z,43.60
2022-10-04T00:32:14.781Z,43.80
2022-10-04T00:33:34.512Z,44.00
2022-10-04T00:34:36.574Z,42.10
2022-10-04T00:35:44.570Z,41.60
2022-10-04T00:36:54.002Z,42.40
2022-10-04T00:38:00.433Z,43.00
2022-10-04T00:39:05.501Z,43.20
2022-10-04T00:40:10.445Z,43.10
2022-10-04T00:41:13.612Z,43.50
2022-10-04T00:42:31.479Z,43.50
2022-10-04T00:43:38.882Z,43.60
2022-10-04T00:44:49.960Z,42.90
2022-10-04T00:45:55.098Z,43.00
2022-10-04T00:46:58.773Z,43.40
2022-10-04T00:48:04.474Z,43.10
2022-10-04T00:49:08.526Z,43.30
2022-10-04T00:50:10.593Z,43.50
2022-10-04T00:51:12.783Z,43.80
2022-10-04T00:52:19.569Z,44.40
2022-10-04T00:53:39.679Z,44.00
2022-10-04T00:54:50.208Z,44.10
2022-10-04T00:55:55.334Z,45.00
2022-10-04T00:57:00.996Z,45.60
2022-10-04T00:58:04.973Z,45.80
2022-10-04T00:59:13.434Z,46.00
2022-10-04T01:00:16.929Z,45.90
2022-10-04T01:01:23.367Z,46.10
2022-10-04T01:02:28.907Z,46.10
2022-10-04T01:03:33.757Z,45.70
2022-10-04T01:04:38.120Z,45.40
2022-10-04T01:05:42.788Z,45.30
2022-10-04T01:06:44.912Z,45.30
2022-10-04T01:07:49.658Z,45.10
2022-10-04T01:08:53.373Z,45.00
2022-10-04T01:09:58.136Z,44.90
2022-10-04T01:11:03.124Z,44.80
2022-10-04T01:12:16.252Z,44.70
2022-10-04T01:13:23.486Z,44.60
2022-10-04T01:14:48.627Z,44.60
2022-10-04T01:15:53.410Z,44.60
2022-10-04T01:16:55.634Z,44.50
2022-10-04T01:18:16.177Z,44.50
2022-10-04T01:19:24.561Z,44.50
2022-10-04T01:20:49.951Z,44.60
2022-10-04T01:22:07.411Z,44.30
2022-10-04T01:23:10.037Z,44.30
2022-10-04T01:24:12.118Z,44.40
2022-10-04T01:25:34.563Z,44.30
2022-10-04T01:26:38.692Z,44.30
2022-10-04T01:27:42.514Z,44.30
2022-10-04T01:28:44.811Z,44.20
2022-10-04T01:29:46.916Z,44.60
2022-10-04T01:30:49.069Z,44.40
2022-10-04T01:31:52.548Z,44.20
2022-10-04T01:32:54.671Z,44.20
2022-10-04T01:33:57.039Z,44.20
2022-10-04T01:34:59.354Z,44.10
2022-10-04T01:36:01.458Z,44.10
2022-10-04T01:37:03.754Z,44.00
2022-10-04T01:38:09.234Z,44.10
2022-10-04T01:39:12.630Z,44.10
2022-10-04T01:40:14.947Z,44.30
2022-10-04T01:41:19.878Z,44.20
2022-10-04T01:42:42.225Z,44.20
2022-10-04T01:43:46.977Z,44.30
2022-10-04T01:44:55.294Z,44.20
2022-10-04T01:46:01.135Z,44.10
2022-10-04T01:47:06.209Z,43.70
2022-10-04T01:48:12.734Z,43.50
2022-10-04T01:49:18.291Z,43.40
2022-10-04T01:50:24.161Z,43.50
2022-10-04T01:51:36.471Z,43.30
2022-10-04T01:52:43.707Z,43.30
2022-10-04T01:53:56.578Z,43.30
2022-10-04T01:55:00.903Z,43.20
2022-10-04T01:56:09.013Z,43.10
2022-10-04T01:57:17.969Z,43.20
2022-10-04T01:58:22.262Z,43.10
2022-10-04T01:59:27.176Z,43.00
2022-10-04T02:00:30.113Z,43.10
2022-10-04T02:01:37.052Z,43.10
2022-10-04T02:02:45.183Z,43.00
2022-10-04T02:03:54.271Z,43.00
2022-10-04T02:04:57.647Z,43.10
2022-10-04T02:06:02.724Z,43.00
2022-10-04T02:07:10.876Z,43.00
2022-10-04T02:08:16.206Z,43.00
2022-10-04T02:09:23.696Z,43.00
2022-10-04T02:10:26.197Z,42.90
2022-10-04T02:11:30.097Z,43.00
2022-10-04T02:12:32.450Z,43.00
2022-10-04T02:13:39.637Z,42.90
2022-10-04T02:14:44.313Z,43.00
2022-10-04T02:15:47.079Z,42.90
2022-10-04T02:16:53.717Z,43.00
2022-10-04T02:17:57.075Z,43.00
2022-10-04T02:18:59.330Z,43.10
2022-10-04T02:20:02.772Z,43.00
2022-10-04T02:21:05.531Z,43.10
2022-10-04T02:22:09.164Z,43.10
2022-10-04T02:23:11.860Z,43.10
2022-10-04T02:24:14.280Z,42.90
2022-10-04T02:25:18.163Z,42.80
2022-10-04T02:26:21.312Z,42.80
2022-10-04T02:27:29.064Z,42.70
2022-10-04T02:28:32.425Z,42.70
2022-10-04T02:29:34.760Z,42.70
2022-10-04T02:30:38.340Z,42.70
2022-10-04T02:31:58.820Z,42.80
2022-10-04T02:33:00.990Z,42.80
2022-10-04T02:34:03.108Z,42.80
2022-10-04T02:35:06.991Z,42.80
2022-10-04T02:36:09.867Z,42.70
2022-10-04T02:37:12.462Z,42.80
2022-10-04T02:38:22.155Z,42.70
2022-10-04T02:39:30.235Z,42.70
2022-10-04T02:40:40.681Z,42.80
2022-10-04T02:41:43.059Z,42.80
2022-10-04T02:42:51.544Z,43.00
2022-10-04T02:43:58.097Z,43.00
2022-10-04T02:45:05.443Z,43.00
2022-10-04T02:46:28.452Z,43.10
2022-10-04T02:47:35.258Z,43.20
2022-10-04T02:48:56.149Z,43.20
2022-10-04T02:49:59.683Z,43.20
2022-10-04T02:51:11.901Z,43.20
2022-10-04T02:52:19.973Z,43.30
2022-10-04T02:53:29.963Z,43.50
2022-10-04T02:54:55.122Z,43.50
2022-10-04T02:55:57.670Z,43.50
2022-10-04T02:57:00.826Z,43.50
2022-10-04T02:58:08.469Z,43.60
2022-10-04T02:59:16.309Z,43.60
2022-10-04T03:00:22.775Z,43.70
2022-10-04T03:01:26.786Z,43.80
2022-10-04T03:02:30.556Z,43.70
2022-10-04T03:03:34.583Z,43.50
2022-10-04T03:04:40.005Z,43.50
2022-10-04T03:05:43.075Z,43.50
2022-10-04T03:06:47.963Z,43.70
2022-10-04T03:07:51.496Z,43.60
2022-10-04T03:08:55.742Z,43.60
2022-10-04T03:09:57.848Z,43.50
2022-10-04T03:11:02.462Z,43.50
2022-10-04T03:12:05.106Z,43.40
2022-10-04T03:13:07.307Z,43.40
2022-10-04T03:14:13.615Z,43.50
2022-10-04T03:15:15.762Z,43.40
2022-10-04T03:16:18.119Z,43.50
2022-10-04T03:17:20.679Z,43.60
2022-10-04T03:18:22.891Z,43.60
2022-10-04T03:19:26.804Z,43.60
2022-10-04T03:20:28.995Z,43.50
2022-10-04T03:21:31.410Z,43.50
2022-10-04T03:22:33.509Z,43.40
2022-10-04T03:23:35.803Z,43.20
2022-10-04T03:24:46.791Z,43.20
2022-10-04T03:26:03.357Z,43.20
2022-10-04T03:27:07.639Z,43.30
2022-10-04T03:28:09.833Z,43.40
2022-10-04T03:29:13.829Z,43.40
2022-10-04T03:30:16.528Z,43.60
2022-10-04T03:31:19.797Z,43.70
2022-10-04T03:32:22.208Z,43.70
2022-10-04T03:33:25.278Z,43.80
2022-10-04T03:34:35.034Z,43.80
2022-10-04T03:35:38.812Z,43.70
2022-10-04T03:36:41.208Z,43.70
2022-10-04T03:37:43.558Z,43.80
2022-10-04T03:38:46.871Z,43.80
2022-10-04T03:39:50.143Z,43.80
2022-10-04T03:40:59.965Z,43.80
2022-10-04T03:42:04.339Z,43.60
2022-10-04T03:43:06.590Z,43.40
2022-10-04T03:44:14.476Z,43.40
2022-10-04T03:45:18.553Z,43.20
2022-10-04T03:46:22.795Z,43.30
2022-10-04T03:47:29.619Z,43.40
2022-10-04T03:48:36.667Z,43.60
2022-10-04T03:49:40.271Z,43.70
2022-10-04T03:50:46.967Z,43.70
2022-10-04T03:51:50.466Z,43.80
2022-10-04T03:52:54.651Z,43.90
2022-10-04T03:53:58.587Z,44.00
2022-10-04T03:55:02.352Z,44.00
2022-10-04T03:56:09.467Z,44.30
2022-10-04T03:57:11.938Z,44.10
2022-10-04T03:58:16.983Z,44.10
2022-10-04T03:59:19.140Z,44.20
2022-10-04T04:00:21.742Z,44.20
2022-10-04T04:01:32.944Z,44.10
2022-10-04T04:02:46.055Z,44.00
2022-10-04T04:03:55.108Z,44.00
2022-10-04T04:05:00.104Z,43.90
2022-10-04T04:06:05.801Z,44.00
2022-10-04T04:07:13.013Z,44.00
2022-10-04T04:08:24.712Z,44.80
2022-10-04T04:09:37.373Z,43.70
2022-10-04T04:10:44.502Z,44.00
2022-10-04T04:11:48.903Z,45.90
2022-10-04T04:12:56.342Z,44.10
2022-10-04T04:14:04.094Z,45.10
2022-10-04T04:15:09.690Z,45.40
2022-10-04T04:16:12.318Z,46.00
2022-10-04T04:17:38.024Z,46.10
2022-10-04T04:18:41.926Z,45.90
2022-10-04T04:19:44.315Z,43.80
2022-10-04T04:20:47.871Z,43.70
2022-10-04T04:21:51.134Z,43.50
2022-10-04T04:23:02.220Z,45.00
2022-10-04T04:24:13.235Z,45.70
2022-10-04T04:25:16.335Z,46.50
2022-10-04T04:26:36.603Z,46.70
2022-10-04T04:27:40.410Z,47.10
2022-10-04T04:28:44.820Z,47.40
2022-10-04T04:29:51.695Z,47.20
2022-10-04T04:30:57.480Z,47.00
2022-10-04T04:32:02.052Z,47.30
2022-10-04T04:33:08.851Z,47.30
2022-10-04T04:34:19.686Z,47.00
2022-10-04T04:35:29.996Z,47.00
2022-10-04T04:36:33.295Z,46.90
2022-10-04T04:37:36.081Z,46.70
2022-10-04T04:39:00.898Z,47.00
2022-10-04T04:40:22.750Z,47.70
2022-10-04T04:41:25.744Z,46.90
2022-10-04T04:42:31.722Z,45.00
2022-10-04T04:43:34.846Z,45.20
2022-10-04T04:44:56.738Z,45.20
2022-10-04T04:46:25.532Z,45.30
2022-10-04T04:47:26.352Z,45.30
2022-10-04T04:48:29.168Z,45.20
2022-10-04T04:49:31.392Z,44.70
2022-10-04T04:50:36.220Z,44.70
2022-10-04T04:51:38.974Z,44.30
2022-10-04T04:52:42.742Z,44.40
2022-10-04T04:53:45.611Z,43.90
2022-10-04T04:54:48.831Z,44.60
2022-10-04T04:56:11.091Z,45.00
2022-10-04T04:57:17.127Z,45.30
2022-10-04T04:58:21.377Z,45.90
2022-10-04T04:59:24.497Z,45.90
2022-10-04T05:00:31.338Z,45.90
2022-10-04T05:01:41.668Z,45.80
2022-10-04T05:02:53.801Z,45.90
2022-10-04T05:04:04.795Z,45.80
2022-10-04T05:05:26.463Z,45.90
2022-10-04T05:06:30.316Z,45.80
2022-10-04T05:07:32.407Z,45.80
2022-10-04T05:08:41.026Z,45.90
2022-10-04T05:09:43.985Z,45.90
2022-10-04T05:11:12.768Z,45.90
2022-10-04T05:12:17.596Z,45.90
2022-10-04T05:13:20.781Z,45.80
2022-10-04T05:14:23.446Z,46.20
2022-10-04T05:15:26.415Z,46.20
2022-10-04T05:16:44.297Z,45.30
2022-10-04T05:17:46.687Z,44.20
2022-10-04T05:18:54.120Z,43.70
2022-10-04T05:19:58.040Z,43.60
2022-10-04T05:21:05.703Z,43.60
2022-10-04T05:22:09.668Z,43.30
2022-10-04T05:23:12.739Z,44.70
2022-10-04T05:24:19.768Z,45.20
2022-10-04T05:25:33.338Z,45.40
2022-10-04T05:26:35.609Z,45.90
2022-10-04T05:27:42.644Z,45.80
2022-10-04T05:28:44.854Z,45.80
2022-10-04T05:30:05.627Z,45.70
2022-10-04T05:31:19.409Z,45.80
2022-10-04T05:32:24.441Z,45.80
2022-10-04T05:33:36.670Z,45.80
2022-10-04T05:34:40.140Z,45.90
2022-10-04T05:35:50.866Z,45.90
2022-10-04T05:37:08.135Z,46.00
2022-10-04T05:38:31.614Z,46.00
2022-10-04T05:39:33.964Z,46.00
2022-10-04T05:40:44.697Z,46.00
2022-10-04T05:41:52.403Z,46.00
2022-10-04T05:42:57.427Z,46.00
2022-10-04T05:44:00.013Z,46.10
2022-10-04T05:45:11.654Z,46.50
2022-10-04T05:46:25.305Z,46.30
2022-10-04T05:47:29.489Z,46.40
2022-10-04T05:48:31.798Z,46.70
2022-10-04T05:49:36.781Z,46.20
2022-10-04T05:50:43.292Z,46.40
2022-10-04T05:52:06.196Z,45.90
2022-10-04T05:53:20.737Z,45.20
2022-10-04T05:54:24.843Z,45.00
2022-10-04T05:55:59.049Z,44.80
2022-10-04T05:57:04.262Z,44.70
2022-10-04T05:58:25.244Z,44.70
2022-10-04T05:59:30.091Z,44.60
2022-10-04T06:00:39.610Z,44.60
2022-10-04T06:01:49.010Z,44.60
2022-10-04T06:03:03.231Z,44.60
2022-10-04T06:04:17.654Z,44.60
2022-10-04T06:05:29.307Z,44.60
2022-10-04T06:06:40.809Z,44.60
2022-10-04T06:07:47.162Z,45.10
2022-10-04T06:09:10.163Z,45.60
2022-10-04T06:10:30.470Z,46.00
2022-10-04T06:11:44.768Z,46.10
2022-10-04T06:13:05.629Z,46.30
2022-10-04T06:14:13.663Z,46.30
2022-10-04T06:15:21.794Z,46.40
2022-10-04T06:16:23.981Z,46.50
2022-10-04T06:17:33.897Z,46.70
2022-10-04T06:18:56.225Z,46.70
2022-10-04T06:20:03.289Z,46.60
2022-10-04T06:21:05.400Z,46.50
2022-10-04T06:22:14.394Z,46.50
2022-10-04T06:23:18.384Z,46.50
2022-10-04T06:24:26.824Z,46.40
2022-10-04T06:25:31.572Z,46.30
2022-10-04T06:26:40.481Z,46.40
2022-10-04T06:27:51.480Z,46.40
2022-10-04T06:28:56.604Z,46.40
2022-10-04T06:30:02.515Z,46.40
2022-10-04T06:31:25.926Z,46.40
2022-10-04T06:32:46.629Z,46.40
2022-10-04T06:34:00.691Z,46.40
2022-10-04T06:35:08.771Z,46.40
2022-10-04T06:36:19.875Z,46.80
2022-10-04T06:37:21.928Z,47.00
2022-10-04T06:38:33.333Z,46.80
2022-10-04T06:39:54.101Z,46.90
2022-10-04T06:41:05.264Z,47.10
2022-10-04T06:42:13.071Z,47.10
2022-10-04T06:43:33.353Z,46.80
2022-10-04T06:44:45.624Z,47.10
2022-10-04T06:45:49.214Z,47.10
2022-10-04T06:46:56.093Z,47.10
2022-10-04T06:48:07.122Z,47.00
2022-10-04T06:49:18.026Z,47.10
2022-10-04T06:50:33.609Z,47.10
2022-10-04T06:51:40.736Z,47.10
2022-10-04T06:53:04.410Z,47.10
2022-10-04T06:54:21.246Z,47.10
2022-10-04T06:55:26.122Z,47.20
2022-10-04T06:56:46.672Z,47.20
2022-10-04T06:57:59.855Z,47.20
2022-10-04T06:59:20.793Z,47.20
2022-10-04T07:00:24.452Z,47.00
2022-10-04T07:01:30.560Z,47.20
2022-10-04T07:02:35.576Z,47.10
2022-10-04T07:03:54.499Z,45.20
2022-10-04T07:05:14.005Z,44.90
2022-10-04T07:06:21.150Z,44.70
2022-10-04T07:07:35.378Z,44.70
2022-10-04T07:08:48.028Z,44.80
2022-10-04T07:10:11.669Z,45.80
2022-10-04T07:11:13.815Z,46.00
2022-10-04T07:12:17.507Z,46.20
2022-10-04T07:13:19.597Z,46.30
2022-10-04T07:14:24.739Z,46.50
2022-10-04T07:15:28.875Z,46.70
2022-10-04T07:16:48.426Z,46.80
2022-10-04T07:17:51.389Z,47.00
2022-10-04T07:19:04.316Z,47.20
2022-10-04T07:20:07.450Z,47.00
2022-10-04T07:21:15.536Z,47.00
2022-10-04T07:22:22.580Z,47.20
2022-10-04T07:23:38.189Z,47.30
2022-10-04T07:24:43.143Z,47.30
2022-10-04T07:25:47.283Z,47.30
2022-10-04T07:26:50.265Z,47.20
2022-10-04T07:28:15.528Z,47.30
2022-10-04T07:29:20.404Z,47.30
2022-10-04T07:30:22.669Z,47.30
2022-10-04T07:31:32.506Z,47.40
2022-10-04T07:32:36.236Z,47.50
2022-10-04T07:33:43.608Z,47.30
2022-10-04T07:34:59.594Z,47.40
2022-10-04T07:36:21.665Z,47.50
2022-10-04T07:37:25.184Z,47.50
2022-10-04T07:38:28.703Z,47.50
2022-10-04T07:39:38.821Z,47.50
2022-10-04T07:40:43.294Z,47.40
2022-10-04T07:41:51.238Z,47.50
2022-10-04T07:43:05.244Z,47.40
2022-10-04T07:44:16.031Z,47.40
2022-10-04T07:45:32.630Z,47.50
2022-10-04T07:46:54.028Z,47.50
2022-10-04T07:48:09.846Z,47.60
2022-10-04T07:49:13.500Z,47.50
2022-10-04T07:50:26.476Z,47.50
2022-10-04T07:51:28.570Z,47.60
2022-10-04T07:52:49.358Z,47.40
2022-10-04T07:53:59.940Z,47.40
2022-10-04T07:55:02.081Z,47.50
2022-10-04T07:56:09.978Z,47.50
2022-10-04T07:57:37.912Z,47.40
2022-10-04T07:58:46.298Z,47.40
2022-10-04T07:59:55.719Z,47.30
2022-10-04T08:01:02.363Z,47.20
2022-10-04T08:02:31.112Z,47.20
2022-10-04T08:03:58.335Z,47.20
2022-10-04T08:05:07.420Z,47.20
2022-10-04T08:06:14.080Z,47.20
2022-10-04T08:07:19.556Z,47.20
2022-10-04T08:08:32.128Z,47.10
2022-10-04T08:09:41.490Z,47.10
2022-10-04T08:11:07.296Z,47.20
2022-10-04T08:12:16.227Z,47.20
2022-10-04T08:13:27.991Z,47.20
2022-10-04T08:14:46.550Z,47.10
2022-10-04T08:15:51.072Z,47.00
2022-10-04T08:16:58.945Z,47.10
2022-10-04T08:18:19.670Z,47.10
2022-10-04T08:19:39.911Z,47.10
2022-10-04T08:20:50.204Z,47.10
2022-10-04T08:21:52.333Z,47.20
2022-10-04T08:22:57.202Z,47.10
2022-10-04T08:24:22.375Z,47.10
2022-10-04T08:25:33.300Z,47.20
2022-10-04T08:26:54.036Z,47.20
2022-10-04T08:28:22.903Z,47.20
2022-10-04T08:29:43.262Z,47.30
2022-10-04T08:31:12.058Z,47.10
2022-10-04T08:32:25.997Z,47.10
2022-10-04T08:33:45.918Z,47.10
2022-10-04T08:35:05.132Z,47.20
2022-10-04T08:36:22.613Z,47.60
2022-10-04T08:37:50.234Z,47.20
2022-10-04T08:38:56.434Z,47.10
2022-10-04T08:40:13.577Z,47.30
2022-10-04T08:41:34.435Z,47.40
2022-10-04T08:42:49.043Z,47.20
2022-10-04T08:44:10.483Z,47.20
2022-10-04T08:45:32.318Z,47.20
2022-10-04T08:46:40.959Z,47.70
2022-10-04T08:48:02.030Z,47.20
2022-10-04T08:49:19.661Z,47.20
2022-10-04T08:50:40.762Z,47.30
2022-10-04T08:51:45.987Z,47.20
2022-10-04T08:52:58.776Z,47.40
2022-10-04T08:54:11.878Z,47.40
2022-10-04T08:55:49.292Z,47.20
2022-10-04T08:57:01.127Z,47.30
2022-10-04T08:58:08.818Z,47.30
2022-10-04T08:59:29.660Z,47.10
2022-10-04T09:00:50.588Z,47.30
2022-10-04T09:01:52.789Z,47.50
2022-10-04T09:03:13.537Z,47.50
2022-10-04T09:04:32.518Z,47.60
2022-10-04T09:05:41.538Z,47.60
2022-10-04T09:06:49.659Z,47.70
2022-10-04T09:08:00.582Z,47.70
2022-10-04T09:09:21.213Z,47.80
2022-10-04T09:10:40.257Z,47.80
2022-10-04T09:11:51.662Z,47.80
2022-10-04T09:13:01.508Z,47.80
2022-10-04T09:14:23.428Z,47.80
2022-10-04T09:15:46.070Z,47.90
2022-10-04T09:16:49.222Z,47.90
2022-10-04T09:18:09.971Z,47.90
2022-10-04T09:19:14.913Z,47.70
2022-10-04T09:20:37.426Z,47.80
2022-10-04T09:21:43.591Z,47.60
2022-10-04T09:22:48.542Z,47.00
2022-10-04T09:24:09.136Z,47.20
2022-10-04T09:25:43.530Z,47.60
2022-10-04T09:26:57.854Z,46.10
2022-10-04T09:28:09.403Z,47.40
2022-10-04T09:29:26.707Z,47.70
2022-10-04T09:30:53.656Z,47.90
2022-10-04T09:31:58.549Z,47.60
2022-10-04T09:33:19.281Z,47.40
2022-10-04T09:34:42.252Z,47.50
2022-10-04T09:35:57.691Z,47.60
2022-10-04T09:37:11.347Z,47.80
2022-10-04T09:38:19.668Z,47.90
2022-10-04T09:39:40.341Z,48.10
2022-10-04T09:41:07.637Z,47.70
2022-10-04T09:42:16.114Z,46.50
2022-10-04T09:43:36.931Z,46.70
2022-10-04T09:44:57.674Z,46.70
2022-10-04T09:46:05.663Z,46.20
2022-10-04T09:47:16.839Z,46.10
2022-10-04T09:48:37.545Z,46.00
2022-10-04T09:49:50.517Z,46.00
2022-10-04T09:51:10.925Z,47.10
2022-10-04T09:52:21.080Z,47.60
2022-10-04T09:53:23.331Z,47.80
2022-10-04T09:54:45.774Z,47.80
2022-10-04T09:56:02.778Z,47.90
2022-10-04T09:57:14.090Z,48.00
2022-10-04T09:58:43.238Z,47.90
2022-10-04T09:59:45.313Z,48.00
2022-10-04T10:01:06.205Z,47.90
2022-10-04T10:02:38.547Z,48.10
2022-10-04T10:03:55.034Z,48.00
2022-10-04T10:05:00.012Z,48.10
2022-10-04T10:06:20.770Z,48.10
2022-10-04T10:07:30.707Z,48.10
2022-10-04T10:08:38.767Z,48.10
2022-10-04T10:10:24.631Z,48.10
2022-10-04T10:11:53.336Z,48.10
2022-10-04T10:13:13.865Z,48.10
2022-10-04T10:14:26.946Z,48.10
2022-10-04T10:15:29.050Z,48.10
2022-10-04T10:16:40.972Z,48.10
2022-10-04T10:18:11.554Z,48.10
2022-10-04T10:19:34.243Z,48.10
2022-10-04T10:20:54.713Z,48.10
2022-10-04T10:22:31.154Z,47.60
2022-10-04T10:23:43.906Z,47.70
2022-10-04T10:24:58.283Z,47.60
2022-10-04T10:26:22.804Z,47.60
2022-10-04T10:27:30.783Z,47.60
2022-10-04T10:28:44.857Z,47.70
2022-10-04T10:30:03.305Z,47.30
2022-10-04T10:31:23.889Z,47.20
2022-10-04T10:32:44.695Z,47.60
2022-10-04T10:33:52.607Z,47.70
2022-10-04T10:35:13.284Z,47.80
2022-10-04T10:36:22.510Z,47.90
2022-10-04T10:37:42.156Z,48.00
2022-10-04T10:38:50.097Z,48.00
2022-10-04T10:40:10.774Z,48.00
2022-10-04T10:41:27.620Z,48.10
2022-10-04T10:42:38.818Z,48.10
2022-10-04T10:43:52.200Z,48.10
2022-10-04T10:45:19.694Z,48.00
2022-10-04T10:46:39.440Z,48.10
2022-10-04T10:47:50.454Z,48.20
2022-10-04T10:49:11.121Z,48.20
2022-10-04T10:50:28.158Z,48.20
2022-10-04T10:51:36.127Z,48.20
2022-10-04T10:52:38.185Z,48.00
2022-10-04T10:53:48.035Z,48.30
2022-10-04T10:54:56.022Z,48.30
2022-10-04T10:56:12.996Z,48.40
2022-10-04T10:57:29.926Z,48.40
2022-10-04T10:58:44.225Z,48.30
2022-10-04T11:00:06.430Z,48.30
2022-10-04T11:01:10.396Z,48.40
2022-10-04T11:02:18.458Z,48.40
2022-10-04T11:03:36.609Z,48.40
2022-10-04T11:04:45.912Z,48.40
2022-10-04T11:06:06.520Z,46.50
2022-10-04T11:07:08.617Z,46.20
2022-10-04T11:08:29.858Z,46.40
2022-10-04T11:09:38.474Z,46.10
2022-10-04T11:11:03.172Z,45.50
2022-10-04T11:12:11.082Z,45.50
2022-10-04T11:13:16.795Z,46.60
2022-10-04T11:14:18.874Z,47.00
2022-10-04T11:15:39.124Z,47.20
2022-10-04T11:16:59.901Z,47.40
2022-10-04T11:18:17.157Z,47.50
2022-10-04T11:19:37.745Z,47.90
2022-10-04T11:20:51.938Z,48.10
2022-10-04T11:22:12.640Z,48.00
2022-10-04T11:23:14.681Z,48.10
2022-10-04T11:24:31.822Z,48.20
2022-10-04T11:25:42.935Z,48.20
2022-10-04T11:26:50.857Z,48.20
2022-10-04T11:27:58.936Z,48.20
2022-10-04T11:29:15.409Z,48.30
2022-10-04T11:30:26.291Z,48.20
2022-10-04T11:31:37.468Z,48.20
2022-10-04T11:32:51.572Z,48.20
2022-10-04T11:34:16.370Z,48.20
2022-10-04T11:35:31.047Z,48.20
2022-10-04T11:36:33.228Z,48.20
2022-10-04T11:37:44.356Z,48.20
2022-10-04T11:38:51.072Z,48.20
2022-10-04T11:40:02.237Z,48.20
2022-10-04T11:41:07.222Z,48.20
2022-10-04T11:42:18.561Z,48.00
2022-10-04T11:43:32.665Z,48.10
2022-10-04T11:44:37.697Z,48.20
2022-10-04T11:45:47.532Z,48.20
2022-10-04T11:46:54.861Z,48.20
2022-10-04T11:48:02.617Z,48.20
2022-10-04T11:49:04.695Z,48.20
2022-10-04T11:50:20.457Z,48.20
2022-10-04T11:51:35.113Z,48.20
2022-10-04T11:52:37.228Z,48.20
2022-10-04T11:53:50.310Z,48.20
2022-10-04T11:54:52.718Z,48.20
2022-10-04T11:56:04.446Z,48.20
2022-10-04T11:57:15.806Z,48.20
2022-10-04T11:58:41.889Z,48.30
2022-10-04T12:00:02.951Z,48.20
2022-10-04T12:01:31.992Z,48.20
2022-10-04T12:02:39.930Z,48.30
2022-10-04T12:04:01.048Z,48.30
2022-10-04T12:05:07.026Z,48.30
2022-10-04T12:06:09.087Z,48.30
2022-10-04T12:07:11.154Z,48.30
2022-10-04T12:08:13.234Z,48.30
2022-10-04T12:09:33.871Z,48.30
2022-10-04T12:10:40.361Z,48.30
2022-10-04T12:12:10.370Z,48.30
2022-10-04T12:13:24.484Z,48.20
2022-10-04T12:14:41.803Z,48.30
2022-10-04T12:15:45.380Z,48.20
2022-10-04T12:17:08.473Z,48.30
2022-10-04T12:18:32.810Z,48.30
2022-10-04T12:19:52.225Z,48.30
2022-10-04T12:20:54.386Z,48.30
2022-10-04T12:22:01.488Z,48.30
2022-10-04T12:23:14.329Z,48.30
2022-10-04T12:24:22.210Z,48.30
2022-10-04T12:25:30.269Z,48.30
2022-10-04T12:26:52.600Z,48.30
2022-10-04T12:28:00.546Z,48.20
2022-10-04T12:29:05.424Z,48.20
2022-10-04T12:30:16.132Z,48.30
2022-10-04T12:31:18.215Z,48.30
2022-10-04T12:32:29.449Z,48.30
2022-10-04T12:33:34.972Z,48.30
2022-10-04T12:34:38.255Z,48.30
2022-10-04T12:35:53.728Z,48.30
2022-10-04T12:37:10.481Z,48.20
2022-10-04T12:38:19.548Z,48.20
2022-10-04T12:39:36.898Z,48.20
2022-10-04T12:40:56.059Z,48.30
2022-10-04T12:42:11.247Z,48.30
2022-10-04T12:43:14.700Z,48.30
2022-10-04T12:44:30.200Z,48.30
2022-10-04T12:45:41.199Z,48.30
2022-10-04T12:46:52.967Z,48.30
2022-10-04T12:48:01.230Z,48.30
2022-10-04T12:49:04.088Z,48.30
2022-10-04T12:50:06.215Z,48.30
2022-10-04T12:51:19.941Z,48.20
2022-10-04T12:52:27.611Z,48.30
2022-10-04T12:53:34.506Z,48.20
2022-10-04T12:54:39.337Z,48.40
2022-10-04T12:55:44.309Z,48.20
2022-10-04T12:57:04.756Z,48.00
2022-10-04T12:58:14.067Z,46.70
2022-10-04T12:59:27.302Z,46.20
2022-10-04T13:00:34.499Z,46.50
2022-10-04T13:01:42.855Z,47.10
2022-10-04T13:02:54.507Z,47.90
2022-10-04T13:04:25.888Z,48.00
2022-10-04T13:05:30.958Z,47.40
2022-10-04T13:06:48.088Z,48.00
2022-10-04T13:07:59.382Z,47.50
2022-10-04T13:09:20.079Z,46.70
2022-10-04T13:10:24.941Z,46.40
2022-10-04T13:11:45.811Z,46.40
2022-10-04T13:13:11.672Z,46.30
2022-10-04T13:14:16.645Z,46.90
2022-10-04T13:18:30.838Z,47.40
2022-10-04T13:19:38.309Z,47.30
2022-10-04T13:20:47.523Z,47.50
2022-10-04T13:21:52.365Z,47.70
2022-10-04T13:23:00.311Z,47.20
2022-10-04T13:24:14.393Z,46.50
2022-10-04T13:25:22.383Z,46.20
2022-10-04T13:26:24.536Z,46.20
2022-10-04T13:27:45.283Z,46.30
2022-10-04T13:28:56.195Z,47.00
2022-10-04T13:30:02.277Z,47.40
2022-10-04T13:31:04.426Z,47.60
2022-10-04T13:32:18.354Z,47.50
2022-10-04T13:33:24.555Z,47.30
2022-10-04T13:34:45.219Z,47.30
2022-10-04T13:35:54.903Z,47.50
2022-10-04T13:37:17.725Z,47.50
2022-10-04T13:38:32.095Z,47.20
2022-10-04T13:39:42.422Z,47.20
2022-10-04T13:40:54.800Z,47.20
2022-10-04T13:42:20.276Z,47.30
2022-10-04T13:43:28.345Z,47.40
2022-10-04T13:44:36.437Z,47.40
2022-10-04T13:45:45.178Z,47.50
2022-10-04T13:46:57.244Z,47.90
2022-10-04T13:48:18.153Z,48.00
2022-10-04T13:49:28.324Z,47.80
2022-10-04T13:50:48.816Z,47.80
2022-10-04T13:52:28.055Z,47.60
2022-10-04T13:54:07.983Z,47.30
2022-10-04T13:55:37.835Z,46.90
2022-10-04T13:56:57.993Z,46.70
2022-10-04T13:58:05.855Z,47.30
2022-10-04T13:59:10.738Z,47.90
2022-10-04T14:00:18.141Z,48.30
2022-10-04T14:01:26.192Z,47.90
2022-10-04T14:02:28.452Z,47.30
2022-10-04T14:03:33.598Z,47.90
2022-10-04T14:04:57.365Z,47.20
2022-10-04T14:06:12.624Z,47.40
2022-10-04T14:07:26.196Z,47.20
2022-10-04T14:08:48.272Z,47.80
2022-10-04T14:10:25.827Z,48.20
2022-10-04T14:11:41.598Z,48.10
2022-10-04T14:12:49.710Z,47.90
2022-10-04T14:14:20.876Z,48.00
2022-10-04T14:15:33.591Z,47.60
2022-10-04T14:16:56.068Z,47.50
2022-10-04T14:18:15.482Z,48.00
2022-10-04T14:19:17.551Z,48.10
2022-10-04T14:20:39.045Z,48.20
2022-10-04T14:21:54.241Z,48.00
2022-10-04T14:23:33.644Z,47.70
2022-10-04T14:24:36.350Z,47.60
2022-10-04T14:25:57.192Z,47.70
2022-10-04T14:27:17.804Z,47.90
2022-10-04T14:28:39.961Z,47.70
2022-10-04T14:30:00.833Z,47.90
2022-10-04T14:31:21.665Z,48.30
2022-10-04T14:32:43.340Z,48.20
2022-10-04T14:33:48.239Z,48.30
2022-10-04T14:35:07.804Z,47.80
2022-10-04T14:36:22.351Z,48.40
2022-10-04T14:37:36.134Z,48.30
2022-10-04T14:38:46.096Z,48.20
2022-10-04T14:40:14.648Z,48.30
2022-10-04T14:41:16.752Z,48.30
2022-10-04T14:42:37.677Z,48.00
2022-10-04T14:43:49.024Z,47.80
2022-10-04T14:44:59.046Z,47.90
2022-10-04T14:46:01.248Z,47.60
2022-10-04T14:47:13.639Z,47.80
2022-10-04T14:48:24.836Z,47.90
2022-10-04T14:49:43.738Z,47.10
2022-10-04T14:50:57.605Z,47.40
2022-10-04T14:52:04.552Z,47.80
2022-10-04T14:53:14.863Z,47.40
2022-10-04T14:54:16.958Z,47.30
2022-10-04T14:55:39.318Z,47.10
2022-10-04T14:56:57.967Z,47.10
2022-10-04T14:58:00.103Z,47.00
2022-10-04T14:59:14.200Z,46.90
2022-10-04T15:00:20.556Z,46.90
2022-10-04T15:01:24.158Z,46.70
2022-10-04T15:02:26.408Z,46.50
2022-10-04T15:03:46.647Z,46.50
2022-10-04T15:04:48.832Z,46.50
2022-10-04T15:05:55.018Z,46.50
2022-10-04T15:07:00.310Z,46.70
2022-10-04T15:08:11.379Z,46.90
2022-10-04T15:09:13.458Z,46.50
2022-10-04T15:10:34.246Z,46.40
2022-10-04T15:12:02.450Z,46.40
2022-10-04T15:13:20.324Z,46.50